Santo Pipo, Argentina
Current Conditions -  °F | °C
As of 11:00 AM on Thursday 23 Oct 2014 (Local Time) from SARP Reporting Station
Clear Clear  
Wind Chill: 86°   Ceiling: Unl
Heat Index: 86°   Visibility: 6mi
Dew Point: 61°   Wind: 6mph
Humidity: 43%   Direction: 320°NW
Pressure: 30"   Gusts: NA
Location:  27.13°S, 55.42°W
Report Text: SARP 231400Z 32005KT CAVOK 30/16 Q1016
Loading
Personal Weather Stations






























Interactive Weather Map
Tropical Storm Tracking
New forecast layout! Learn more

10-Day Weather Forecast

Advertisements
Track Severe Weather on mobile